createdAt,value
2023-04-04T00:00:56.851Z,99899.75
2023-04-04T00:01:59.099Z,99903.46
2023-04-04T00:03:01.303Z,99904.41
2023-04-04T00:04:05.170Z,99894.78
2023-04-04T00:05:08.133Z,99905.25
2023-04-04T00:06:11.220Z,99900.08
2023-04-04T00:07:13.832Z,99902.61
2023-04-04T00:08:16.458Z,99896.37
2023-04-04T00:09:18.708Z,99899.02
2023-04-04T00:10:20.969Z,99897.22
2023-04-04T00:11:23.266Z,99897.31
2023-04-04T00:12:28.362Z,99894.87
2023-04-04T00:13:29.551Z,99895.08
2023-04-04T00:14:32.326Z,99893.61
2023-04-04T00:15:35.615Z,99892.75
2023-04-04T00:16:38.526Z,99888.52
2023-04-04T00:17:41.316Z,99887.78
2023-04-04T00:18:43.498Z,99888.61
2023-04-04T00:19:46.734Z,99897.41
2023-04-04T00:20:48.862Z,99893.91
2023-04-04T00:21:50.828Z,99897.41
2023-04-04T00:24:04.174Z,99885.45
2023-04-04T00:25:07.552Z,99885.84
2023-04-04T00:26:10.049Z,99884.05
2023-04-04T00:27:12.994Z,99883.97
2023-04-04T00:28:15.662Z,99882.99
2023-04-04T00:29:18.037Z,99882.91
2023-04-04T00:30:20.476Z,99885.43
2023-04-04T00:31:22.635Z,99885.43
2023-04-04T00:32:25.127Z,99885.55
2023-04-04T00:33:27.601Z,99882.91
2023-04-04T00:34:29.849Z,99887.47
2023-04-04T00:35:32.055Z,99879.61
2023-04-04T00:36:34.926Z,99881.31
2023-04-04T00:37:37.757Z,99881.31
2023-04-04T00:38:39.839Z,99881.31
2023-04-04T00:39:42.017Z,99881.20
2023-04-04T00:40:47.709Z,99881.93
2023-04-04T00:41:50.131Z,99886.41
2023-04-04T00:42:53.600Z,99882.78
2023-04-04T00:43:56.630Z,99885.43
2023-04-04T00:44:59.560Z,99884.58
2023-04-04T00:46:02.211Z,99889.14
2023-04-04T00:47:04.650Z,99891.91
2023-04-04T00:48:06.938Z,99890.11
2023-04-04T00:49:09.446Z,99894.64
2023-04-04T00:50:12.138Z,99892.97
2023-04-04T00:51:14.421Z,99907.02
2023-04-04T00:52:16.682Z,99896.55
2023-04-04T00:53:18.936Z,99900.05
2023-04-04T00:54:21.130Z,99903.64
2023-04-04T00:56:37.071Z,99898.59
2023-04-04T00:57:39.400Z,99906.70
2023-04-04T00:59:53.840Z,99895.81
2023-04-04T01:00:57.233Z,99894.31
2023-04-04T01:01:59.993Z,99895.08
2023-04-04T01:03:03.042Z,99897.49
2023-04-04T01:04:05.756Z,99898.27
2023-04-04T01:05:09.335Z,99894.64
2023-04-04T01:06:11.776Z,99895.49
2023-04-04T01:07:14.030Z,99888.41
2023-04-04T01:08:19.383Z,99888.49
2023-04-04T01:09:22.500Z,99891.91
2023-04-04T01:10:24.833Z,99888.41
2023-04-04T01:11:27.093Z,99888.49
2023-04-04T01:12:31.030Z,99895.70
2023-04-04T01:13:33.529Z,99888.73
2023-04-04T01:14:36.011Z,99886.08
2023-04-04T01:15:38.283Z,99886.08
2023-04-04T01:16:41.074Z,99879.94
2023-04-04T01:17:43.904Z,99884.26
2023-04-04T01:18:47.773Z,99891.26
2023-04-04T01:20:06.601Z,99887.76
2023-04-04T01:21:11.621Z,99884.26
2023-04-04T01:22:16.193Z,99888.49
2023-04-04T01:23:21.018Z,99885.84
2023-04-04T01:24:24.513Z,99884.17
2023-04-04T01:25:31.927Z,99884.05
2023-04-04T01:26:36.155Z,99883.20
2023-04-04T01:27:39.327Z,99885.96
2023-04-04T01:28:43.522Z,99880.67
2023-04-04T01:29:47.630Z,99889.47
2023-04-04T01:30:51.973Z,99888.61
2023-04-04T01:33:28.597Z,99887.67
2023-04-04T01:34:55.662Z,99887.23
2023-04-04T01:36:02.188Z,99883.52
2023-04-04T01:37:29.124Z,99890.31
2023-04-04T01:38:45.521Z,99883.31
2023-04-04T01:41:03.365Z,99892.11
2023-04-04T01:42:07.774Z,99894.11
2023-04-04T01:43:10.809Z,99895.82
2023-04-04T01:44:17.144Z,99899.20
2023-04-04T01:45:23.257Z,99893.79
2023-04-04T01:46:26.189Z,99892.84
2023-04-04T01:47:29.021Z,99904.29
2023-04-04T01:48:31.083Z,99903.44
2023-04-04T01:49:35.139Z,99900.91
2023-04-04T01:50:39.001Z,99911.38
2023-04-04T01:51:42.211Z,99908.73
2023-04-04T01:52:45.397Z,99906.94
2023-04-04T01:53:47.604Z,99912.97
2023-04-04T01:54:49.943Z,99909.38
2023-04-04T01:55:52.615Z,99907.47
2023-04-04T01:56:55.658Z,99905.67
2023-04-04T01:57:57.938Z,99913.62
2023-04-04T01:59:00.559Z,99903.88
2023-04-04T02:00:05.553Z,99908.32
2023-04-04T02:01:09.739Z,99908.41
2023-04-04T02:02:12.117Z,99919.12
2023-04-04T02:03:14.840Z,99914.15
2023-04-04T02:04:17.086Z,99911.58
2023-04-04T02:05:20.104Z,99913.38
2023-04-04T02:06:22.452Z,99917.00
2023-04-04T02:07:24.627Z,99915.20
2023-04-04T02:08:27.467Z,99910.64
2023-04-04T02:09:30.069Z,99908.00
2023-04-04T02:10:32.395Z,99907.02
2023-04-04T02:11:35.003Z,99906.94
2023-04-04T02:12:37.700Z,99916.59
2023-04-04T02:13:39.650Z,99910.32
2023-04-04T02:14:42.154Z,99913.83
2023-04-04T02:15:44.992Z,99910.23
2023-04-04T02:16:47.388Z,99911.17
2023-04-04T02:17:49.608Z,99917.41
2023-04-04T02:18:52.605Z,99910.32
2023-04-04T02:19:54.679Z,99913.94
2023-04-04T02:20:57.717Z,99913.94
2023-04-04T02:22:00.111Z,99912.32
2023-04-04T02:23:02.512Z,99908.00
2023-04-04T02:24:06.309Z,99905.44
2023-04-04T02:25:09.189Z,99909.79
2023-04-04T02:26:12.086Z,99900.14
2023-04-04T02:27:14.294Z,99901.84
2023-04-04T02:28:16.954Z,99903.64
2023-04-04T02:29:19.039Z,99896.67
2023-04-04T02:30:21.109Z,99896.76
2023-04-04T02:31:23.915Z,99899.52
2023-04-04T02:32:26.617Z,99898.55
2023-04-04T02:33:30.093Z,99894.97
2023-04-04T02:34:34.208Z,99897.61
2023-04-04T02:35:37.227Z,99894.84
2023-04-04T02:36:40.050Z,99896.55
2023-04-04T02:38:55.158Z,99892.11
2023-04-04T02:39:59.161Z,99887.88
2023-04-04T02:41:01.654Z,99889.55
2023-04-04T02:42:04.265Z,99891.05
2023-04-04T02:43:06.337Z,99891.99
2023-04-04T02:44:09.455Z,99889.34
2023-04-04T02:45:12.498Z,99894.64
2023-04-04T02:46:21.660Z,99888.41
2023-04-04T02:47:20.727Z,99884.05
2023-04-04T02:48:22.891Z,99883.20
2023-04-04T02:49:26.875Z,99876.96
2023-04-04T02:50:29.131Z,99873.38
2023-04-04T02:51:33.286Z,99868.94
2023-04-04T02:52:35.561Z,99871.67
2023-04-04T02:53:39.558Z,99875.17
2023-04-04T02:54:43.739Z,99868.08
2023-04-04T02:55:46.745Z,99874.23
2023-04-04T02:56:49.080Z,99863.64
2023-04-04T02:57:51.250Z,99866.28
2023-04-04T02:58:54.150Z,99859.28
2023-04-04T02:59:56.278Z,99867.22
2023-04-04T03:00:58.469Z,99867.22
2023-04-04T03:02:02.601Z,99864.66
2023-04-04T03:03:06.686Z,99867.43
2023-04-04T03:04:10.971Z,99869.22
2023-04-04T03:05:13.204Z,99860.43
2023-04-04T03:06:15.780Z,99864.78
2023-04-04T03:07:18.584Z,99864.05
2023-04-04T03:08:20.554Z,99859.81
2023-04-04T03:09:23.675Z,99867.84
2023-04-04T03:10:28.602Z,99865.20
2023-04-04T03:11:31.585Z,99870.41
2023-04-04T03:12:33.740Z,99874.73
2023-04-04T03:13:36.614Z,99867.64
2023-04-04T03:14:39.216Z,99874.64
2023-04-04T03:15:41.686Z,99881.61
2023-04-04T03:16:43.890Z,99885.96
2023-04-04T03:17:48.487Z,99888.61
2023-04-04T03:18:50.677Z,99890.52
2023-04-04T03:19:54.401Z,99896.67
2023-04-04T03:20:57.292Z,99897.49
2023-04-04T03:21:59.360Z,99893.17
2023-04-04T03:23:02.944Z,99900.14
2023-04-04T03:24:06.417Z,99898.47
2023-04-04T03:25:09.692Z,99901.11
2023-04-04T03:26:12.322Z,99906.41
2023-04-04T03:27:14.473Z,99903.77
2023-04-04T03:28:16.540Z,99906.29
2023-04-04T03:29:18.714Z,99900.99
2023-04-04T03:30:21.118Z,99900.05
2023-04-04T03:31:23.452Z,99909.79
2023-04-04T03:32:26.209Z,99910.73
2023-04-04T03:33:28.368Z,99904.61
2023-04-04T03:34:30.532Z,99912.44
2023-04-04T03:35:40.024Z,99911.58
2023-04-04T03:36:42.601Z,99917.73
2023-04-04T03:37:45.016Z,99915.20
2023-04-04T03:38:47.385Z,99908.20
2023-04-04T03:39:50.906Z,99916.14
2023-04-04T03:41:03.834Z,99917.94
2023-04-04T03:42:06.487Z,99921.32
2023-04-04T03:43:09.218Z,99926.53
2023-04-04T03:44:12.577Z,99923.03
2023-04-04T03:45:15.172Z,99916.87
2023-04-04T03:46:17.918Z,99931.83
2023-04-04T03:47:22.226Z,99923.97
2023-04-04T03:48:24.689Z,99923.97
2023-04-04T03:49:26.992Z,99926.61
2023-04-04T03:50:30.606Z,99928.44
2023-04-04T03:51:33.170Z,99917.85
2023-04-04T03:53:47.211Z,99919.56
2023-04-04T03:54:49.355Z,99918.14
2023-04-04T03:55:52.785Z,99914.44
2023-04-04T03:56:57.024Z,99913.50
2023-04-04T03:57:59.445Z,99917.94
2023-04-04T03:59:03.528Z,99911.79
2023-04-04T04:00:07.905Z,99917.94
2023-04-04T04:01:15.669Z,99909.91
2023-04-04T04:02:17.770Z,99916.14
2023-04-04T04:03:21.629Z,99917.08
2023-04-04T04:04:24.286Z,99914.55
2023-04-04T04:05:26.544Z,99926.08
2023-04-04T04:06:28.737Z,99923.44
2023-04-04T04:07:32.127Z,99926.85
2023-04-04T04:08:34.252Z,99928.73
2023-04-04T04:09:36.770Z,99929.58
2023-04-04T04:10:40.087Z,99932.14
2023-04-04T04:11:42.276Z,99929.38
2023-04-04T04:12:46.161Z,99929.38
2023-04-04T04:13:49.710Z,99927.67
2023-04-04T04:14:53.201Z,99925.02
2023-04-04T04:15:56.185Z,99938.27
2023-04-04T04:16:58.988Z,99927.67
2023-04-04T04:18:03.016Z,99933.82
2023-04-04T04:19:06.283Z,99930.23
2023-04-04T04:20:12.135Z,99932.03
2023-04-04T04:21:16.311Z,99939.03
2023-04-04T04:22:18.778Z,99939.97
2023-04-04T04:23:20.964Z,99940.09
2023-04-04T04:24:24.842Z,99941.97
2023-04-04T04:25:27.037Z,99948.23
2023-04-04T04:26:40.508Z,99949.28
2023-04-04T04:27:44.283Z,99948.52
2023-04-04T04:28:46.667Z,99947.89
2023-04-04T04:29:50.093Z,99954.21
2023-04-04T04:30:53.713Z,99947.24
2023-04-04T04:31:58.415Z,99948.30
2023-04-04T04:33:02.929Z,99936.00
2023-04-04T04:34:07.556Z,99943.09
2023-04-04T04:35:10.540Z,99950.20
2023-04-04T04:36:13.635Z,99952.85
2023-04-04T04:37:26.727Z,99949.23
2023-04-04T04:38:31.133Z,99947.56
2023-04-04T04:39:33.834Z,99947.44
2023-04-04T04:40:38.612Z,99942.89
2023-04-04T04:41:44.110Z,99949.89
2023-04-04T04:42:46.620Z,99948.92
2023-04-04T04:43:50.635Z,99953.47
2023-04-04T04:44:53.112Z,99950.94
2023-04-04T04:45:59.047Z,99945.73
2023-04-04T04:47:03.520Z,99946.78
2023-04-04T04:48:07.446Z,99953.88
2023-04-04T04:49:11.757Z,99953.98
2023-04-04T04:50:15.336Z,99956.75
2023-04-04T04:51:19.371Z,99964.77
2023-04-04T04:52:23.283Z,99962.86
2023-04-04T04:54:37.401Z,99964.80
2023-04-04T04:55:40.267Z,99961.70
2023-04-04T04:56:44.644Z,99970.37
2023-04-04T04:57:49.058Z,99960.64
2023-04-04T04:58:53.436Z,99964.97
2023-04-04T04:59:57.457Z,99963.17
2023-04-04T05:01:01.623Z,99964.03
2023-04-04T05:02:07.615Z,99972.83
2023-04-04T05:03:12.890Z,99963.92
2023-04-04T05:04:18.282Z,99962.13
2023-04-04T05:05:22.451Z,99964.77
2023-04-04T05:06:28.808Z,99959.48
2023-04-04T05:07:32.978Z,99961.27
2023-04-04T05:08:35.436Z,99957.77
2023-04-04T05:09:45.242Z,99956.95
2023-04-04T05:10:49.957Z,99948.16
2023-04-04T05:11:53.388Z,99955.13
2023-04-04T05:12:57.680Z,99955.23
2023-04-04T05:14:01.549Z,99956.17
2023-04-04T05:15:06.713Z,99960.53
2023-04-04T05:16:09.378Z,99961.39
2023-04-04T05:17:11.823Z,99965.08
2023-04-04T05:18:16.027Z,99954.50
2023-04-04T05:19:19.016Z,99960.64
2023-04-04T05:20:23.253Z,99958.73
2023-04-04T05:21:26.048Z,99955.98
2023-04-04T05:22:30.402Z,99954.92
2023-04-04T05:23:33.220Z,99957.57
2023-04-04T05:24:36.245Z,99959.48
2023-04-04T05:25:39.768Z,99949.95
2023-04-04T05:26:44.374Z,99960.53
2023-04-04T05:27:47.778Z,99956.17
2023-04-04T05:28:50.600Z,99959.67
2023-04-04T05:29:54.312Z,99953.53
2023-04-04T05:30:57.533Z,99950.88
2023-04-04T05:32:02.520Z,99952.79
2023-04-04T05:33:05.472Z,99952.05
2023-04-04T05:34:07.772Z,99953.84
2023-04-04T05:35:09.875Z,99959.05
2023-04-04T05:36:13.134Z,99953.77
2023-04-04T05:37:23.231Z,99961.58
2023-04-04T05:38:25.492Z,99962.32
2023-04-04T05:39:28.272Z,99966.76
2023-04-04T05:40:35.120Z,99970.17
2023-04-04T05:41:39.162Z,99974.50
2023-04-04T05:42:57.405Z,99976.30
2023-04-04T05:44:01.669Z,99981.58
2023-04-04T05:45:05.544Z,99986.88
2023-04-04T05:46:09.303Z,99989.52
2023-04-04T05:47:13.910Z,99978.94
2023-04-04T05:48:17.982Z,99974.50
2023-04-04T05:49:24.760Z,99960.33
2023-04-04T05:50:29.737Z,99947.10
2023-04-04T05:51:34.231Z,99939.05
2023-04-04T05:52:38.224Z,99938.96
2023-04-04T05:53:41.121Z,99939.70
2023-04-04T05:54:44.273Z,99940.44
2023-04-04T05:55:52.536Z,99949.23
2023-04-04T05:56:57.892Z,99962.38
2023-04-04T05:58:17.155Z,99969.27
2023-04-04T05:59:21.367Z,99976.16
2023-04-04T06:00:26.532Z,99981.53
2023-04-04T06:01:31.241Z,99985.97
2023-04-04T06:02:35.482Z,99987.69
2023-04-04T06:03:39.633Z,99987.80
2023-04-04T06:04:43.965Z,99989.47
2023-04-04T06:05:52.211Z,99991.19
2023-04-04T06:06:55.102Z,99988.53
2023-04-04T06:07:57.767Z,99995.54
2023-04-04T06:09:00.080Z,99988.42
2023-04-04T06:10:04.164Z,99994.57
2023-04-04T06:11:08.477Z,100002.52
2023-04-04T06:12:10.683Z,99999.01
2023-04-04T06:13:13.361Z,99996.36
2023-04-04T06:14:17.558Z,100002.52
2023-04-04T06:15:21.719Z,100008.55
2023-04-04T06:16:24.168Z,100004.95
2023-04-04T06:17:27.380Z,100007.61
2023-04-04T06:18:29.484Z,100002.23
2023-04-04T06:19:31.619Z,100005.90
2023-04-04T06:20:34.709Z,100006.86
2023-04-04T06:21:36.808Z,100004.22
2023-04-04T06:22:38.977Z,100000.72
2023-04-04T06:23:42.564Z,99996.28
2023-04-04T06:24:44.663Z,100006.75
2023-04-04T06:25:48.912Z,100001.57
2023-04-04T06:26:54.005Z,99999.13
2023-04-04T06:27:58.185Z,99994.77
2023-04-04T06:29:00.938Z,99996.56
2023-04-04T06:30:08.188Z,99996.56
2023-04-04T06:31:12.813Z,99998.27
2023-04-04T06:32:15.041Z,100002.52
2023-04-04T06:33:18.818Z,100003.48
2023-04-04T06:34:22.937Z,100006.13
2023-04-04T06:35:32.757Z,100005.27
2023-04-04T06:36:36.985Z,100000.83
2023-04-04T06:37:40.469Z,100001.77
2023-04-04T06:38:44.919Z,100009.71
2023-04-04T06:39:48.998Z,100000.83
2023-04-04T06:40:53.628Z,100010.45
2023-04-04T06:41:56.241Z,99998.92
2023-04-04T06:43:00.773Z,100005.16
2023-04-04T06:44:05.834Z,100005.08
2023-04-04T06:45:09.658Z,100001.66
2023-04-04T06:46:12.299Z,100003.37
2023-04-04T06:47:14.348Z,100007.80
2023-04-04T06:48:16.422Z,100005.27
2023-04-04T06:49:18.586Z,100008.00
2023-04-04T06:50:21.654Z,100001.11
2023-04-04T06:51:24.393Z,100002.91
2023-04-04T06:52:27.077Z,100006.41
2023-04-04T06:53:29.525Z,100005.35
2023-04-04T06:54:31.596Z,100006.13
2023-04-04T06:55:34.666Z,100003.48
2023-04-04T06:56:37.195Z,100004.30
2023-04-04T06:57:40.087Z,100006.86
2023-04-04T06:58:44.773Z,100000.60
2023-04-04T06:59:47.187Z,99998.73
2023-04-04T07:00:49.489Z,100005.70
2023-04-04T07:01:51.597Z,99997.88
2023-04-04T07:03:00.910Z,99992.58
2023-04-04T07:04:04.570Z,99994.37
2023-04-04T07:05:08.709Z,99995.11
2023-04-04T07:06:11.745Z,99990.67
2023-04-04T07:07:14.384Z,99988.99
2023-04-04T07:08:16.438Z,99986.23
2023-04-04T07:09:28.715Z,99989.08
2023-04-04T07:10:25.194Z,99988.14
2023-04-04T07:11:27.346Z,100000.52
2023-04-04T07:12:30.344Z,99989.94
2023-04-04T07:13:32.485Z,99991.72
2023-04-04T07:14:34.531Z,99991.84
2023-04-04T07:15:37.030Z,99990.02
2023-04-04T07:16:39.252Z,99996.16
2023-04-04T07:17:41.706Z,99993.63
2023-04-04T07:18:44.617Z,99995.42
2023-04-04T07:19:46.704Z,99990.12
2023-04-04T07:20:49.077Z,99989.19
2023-04-04T07:21:51.165Z,99998.07
2023-04-04T07:22:53.293Z,100002.42
2023-04-04T07:23:55.256Z,99993.72
2023-04-04T07:24:57.699Z,100008.77
2023-04-04T07:25:59.818Z,100003.67
2023-04-04T07:27:02.511Z,100009.80
2023-04-04T07:28:12.471Z,100008.97
2023-04-04T07:29:09.240Z,99999.44
2023-04-04T07:30:13.188Z,100000.26
2023-04-04T07:31:15.309Z,100006.33
2023-04-04T07:32:17.829Z,100004.50
2023-04-04T07:33:19.882Z,100000.83
2023-04-04T07:34:22.078Z,100005.08
2023-04-04T07:35:25.478Z,100011.96
2023-04-04T07:36:27.953Z,100008.27
2023-04-04T07:37:30.233Z,100004.64
2023-04-04T07:38:32.786Z,100014.30
2023-04-04T07:39:34.877Z,100010.71
2023-04-04T07:40:38.159Z,100006.35
2023-04-04T07:41:40.638Z,100002.85
2023-04-04T07:42:46.192Z,100001.06
2023-04-04T07:43:49.236Z,100010.71
2023-04-04T07:44:51.906Z,100010.80
2023-04-04T07:45:54.418Z,100012.39
2023-04-04T07:47:08.556Z,100012.50
2023-04-04T07:48:01.201Z,100008.92
2023-04-04T07:49:03.497Z,100017.60
2023-04-04T07:50:08.184Z,100025.55
2023-04-04T07:51:11.503Z,100017.60
2023-04-04T07:53:26.044Z,100016.14
2023-04-04T07:54:29.023Z,100016.48
2023-04-04T07:55:32.417Z,100023.41
2023-04-04T07:56:34.993Z,100023.41
2023-04-04T07:57:39.970Z,100025.20
2023-04-04T07:58:42.638Z,100022.55
2023-04-04T07:59:44.834Z,100020.84
2023-04-04T08:00:47.447Z,100027.92
2023-04-04T08:01:50.031Z,100034.08
2023-04-04T08:02:53.715Z,100032.36
2023-04-04T08:03:57.500Z,100032.36
2023-04-04T08:05:00.835Z,100021.04
2023-04-04T08:06:03.508Z,100024.54
2023-04-04T08:07:06.804Z,100026.25
2023-04-04T08:08:09.014Z,100021.78
2023-04-04T08:09:11.249Z,100017.45
2023-04-04T08:10:13.951Z,100020.84
2023-04-04T08:11:15.911Z,100020.84
2023-04-04T08:12:17.967Z,100025.20
2023-04-04T08:13:20.141Z,100026.05
2023-04-04T08:14:22.774Z,100023.41
2023-04-04T08:15:24.984Z,100017.06
2023-04-04T08:16:27.496Z,100020.53
2023-04-04T08:17:30.147Z,100022.16
2023-04-04T08:18:32.235Z,100028.27
2023-04-04T08:19:35.332Z,100024.69
2023-04-04T08:20:38.209Z,100021.10
2023-04-04T08:21:41.893Z,100024.48
2023-04-04T08:22:44.034Z,100029.67
2023-04-04T08:23:46.192Z,100023.52
2023-04-04T08:24:48.292Z,100025.23
2023-04-04T08:25:50.809Z,100026.08
2023-04-04T08:27:04.598Z,100020.78
2023-04-04T08:27:57.853Z,100019.93
2023-04-04T08:29:00.367Z,100026.08
2023-04-04T08:30:04.382Z,100019.93
2023-04-04T08:31:06.976Z,100020.05
2023-04-04T08:32:09.542Z,100022.70
2023-04-04T08:33:11.827Z,100014.64
2023-04-04T08:34:14.359Z,100011.91
2023-04-04T08:35:16.583Z,100012.64
2023-04-04T08:36:19.609Z,100014.32
2023-04-04T08:37:22.098Z,100012.53
2023-04-04T08:38:24.182Z,100015.09
2023-04-04T08:39:26.377Z,100017.54
2023-04-04T08:40:28.853Z,100023.58
2023-04-04T08:41:31.216Z,100026.11
2023-04-04T08:42:33.584Z,100019.98
2023-04-04T08:43:37.930Z,100025.17
2023-04-04T08:44:41.828Z,100010.98
2023-04-04T08:45:44.990Z,100017.96
2023-04-04T08:46:49.007Z,100016.16
2023-04-04T08:47:52.030Z,100017.02
2023-04-04T08:48:56.146Z,100016.82
2023-04-04T08:49:59.966Z,100017.67
2023-04-04T08:51:04.030Z,100017.55
2023-04-04T08:52:07.015Z,100025.50
2023-04-04T08:53:11.581Z,100024.56
2023-04-04T08:54:14.959Z,100020.94
2023-04-04T08:55:17.778Z,100028.80
2023-04-04T08:56:20.455Z,100014.59
2023-04-04T08:57:22.682Z,100021.59
2023-04-04T08:58:25.890Z,100024.98
2023-04-04T08:59:28.226Z,100024.98
2023-04-04T09:00:32.650Z,100029.34
2023-04-04T09:01:35.279Z,100027.55
2023-04-04T09:02:48.173Z,100023.06
2023-04-04T09:03:51.551Z,100023.84
2023-04-04T09:05:05.403Z,100021.07
2023-04-04T09:05:59.167Z,100021.80
2023-04-04T09:07:04.234Z,100027.02
2023-04-04T09:08:07.625Z,100022.58
2023-04-04T09:09:10.146Z,100025.11
2023-04-04T09:10:12.431Z,100030.20
2023-04-04T09:11:17.048Z,100024.81
2023-04-04T09:12:20.734Z,100031.80
2023-04-04T09:13:25.128Z,100033.50
2023-04-04T09:14:29.451Z,100035.30
2023-04-04T09:15:32.689Z,100038.80
2023-04-04T09:16:35.327Z,100035.30
2023-04-04T09:17:37.421Z,100037.83
2023-04-04T09:18:40.977Z,100044.84
2023-04-04T09:19:43.089Z,100043.05
2023-04-04T09:21:57.807Z,100039.54
2023-04-04T09:22:59.979Z,100042.39
2023-04-04T09:24:02.656Z,100043.13
2023-04-04T09:25:07.860Z,100041.33
2023-04-04T09:26:10.280Z,100044.95
2023-04-04T09:27:14.469Z,100044.19
2023-04-04T09:28:17.393Z,100046.84
2023-04-04T09:30:33.391Z,100040.60
2023-04-04T09:31:35.995Z,100052.25
2023-04-04T09:32:38.390Z,100050.26
2023-04-04T09:33:40.554Z,100047.48
2023-04-04T09:34:43.828Z,100044.72
2023-04-04T09:37:15.198Z,100042.10
2023-04-04T09:38:17.702Z,100049.20
2023-04-04T09:39:21.659Z,100048.14
2023-04-04T09:40:24.090Z,100053.23
2023-04-04T09:41:26.346Z,100046.02
2023-04-04T09:42:29.920Z,100052.17
2023-04-04T09:43:33.166Z,100046.87
2023-04-04T09:44:36.700Z,100046.87
2023-04-04T09:45:41.424Z,100045.28
2023-04-04T09:46:44.792Z,100043.57
2023-04-04T09:47:47.931Z,100042.72
2023-04-04T09:48:50.147Z,100050.79
2023-04-04T09:49:52.879Z,100038.48
2023-04-04T09:50:57.996Z,100041.13
2023-04-04T09:52:00.763Z,100042.92
2023-04-04T09:53:05.736Z,100042.07
2023-04-04T09:54:18.718Z,100040.39
2023-04-04T09:55:14.451Z,100038.59
2023-04-04T09:56:17.771Z,100044.84
2023-04-04T09:57:22.766Z,100044.95
2023-04-04T09:58:26.765Z,100044.19
2023-04-04T09:59:31.233Z,100044.19
2023-04-04T10:01:45.825Z,100040.92
2023-04-04T10:02:49.169Z,100034.03
2023-04-04T10:03:52.769Z,100036.56
2023-04-04T10:05:05.225Z,100040.80
2023-04-04T10:06:05.508Z,100039.21
2023-04-04T10:07:10.950Z,100040.06
2023-04-04T10:08:21.715Z,100039.21
2023-04-04T10:09:24.576Z,100034.77
2023-04-04T10:10:27.912Z,100041.00
2023-04-04T10:11:32.090Z,100038.36
2023-04-04T10:12:36.474Z,100034.77
2023-04-04T10:13:42.384Z,100031.27
2023-04-04T10:14:47.288Z,100041.66
2023-04-04T10:15:50.162Z,100036.36
2023-04-04T10:18:10.936Z,100034.48
2023-04-04T10:19:14.924Z,100037.95
2023-04-04T10:20:18.355Z,100035.95
2023-04-04T10:21:22.198Z,100041.05
2023-04-04T10:22:24.810Z,100042.52
2023-04-04T10:23:26.974Z,100038.92
2023-04-04T10:24:29.209Z,100037.86
2023-04-04T10:25:31.589Z,100035.21
2023-04-04T10:26:33.768Z,100035.00
2023-04-04T10:27:36.437Z,100035.74
2023-04-04T10:28:38.647Z,100038.27
2023-04-04T10:29:41.313Z,100034.35
2023-04-04T10:32:03.700Z,100034.16
2023-04-04T10:33:10.813Z,100032.47
2023-04-04T10:35:40.744Z,100028.31
2023-04-04T10:36:51.092Z,100022.91
2023-04-04T10:38:01.744Z,100019.31
2023-04-04T10:39:15.769Z,100021.85
2023-04-04T10:40:21.258Z,100028.73
2023-04-04T10:41:26.813Z,100027.80
2023-04-04T10:42:32.407Z,100029.47
2023-04-04T10:43:35.013Z,100025.02
2023-04-04T10:44:39.274Z,100032.03
2023-04-04T10:45:42.310Z,100030.11
2023-04-04T10:46:46.734Z,100029.17
2023-04-04T10:47:50.389Z,100024.60
2023-04-04T10:48:53.973Z,100023.66
2023-04-04T10:49:57.706Z,100020.88
2023-04-04T10:51:00.691Z,100021.73
2023-04-04T10:52:03.420Z,100020.77
2023-04-04T10:53:07.029Z,100011.77
2023-04-04T10:54:10.725Z,100022.98
2023-04-04T10:55:15.886Z,100014.09
2023-04-04T10:56:18.749Z,100013.97
2023-04-04T10:57:21.570Z,100017.38
2023-04-04T10:58:23.808Z,100019.91
2023-04-04T10:59:27.287Z,100019.70
2023-04-04T11:00:29.659Z,100029.45
2023-04-04T11:03:11.572Z,100021.16
2023-04-04T11:04:20.689Z,100024.66
2023-04-04T11:05:26.229Z,100023.59
2023-04-04T11:07:07.218Z,100020.13
2023-04-04T11:08:10.579Z,100023.72
2023-04-04T11:09:12.679Z,100023.50
2023-04-04T11:10:19.307Z,100027.02
2023-04-04T11:11:23.123Z,100025.18
2023-04-04T11:12:31.427Z,100025.94
2023-04-04T11:13:34.314Z,100038.23
2023-04-04T11:14:36.485Z,100037.16
2023-04-04T11:16:03.973Z,100032.71
2023-04-04T11:17:08.325Z,100033.56
2023-04-04T11:18:28.943Z,100027.41
2023-04-04T11:19:17.315Z,100034.42
2023-04-04T11:20:22.320Z,100036.22
2023-04-04T11:21:26.204Z,100030.06
2023-04-04T11:22:28.324Z,100030.06
2023-04-04T11:24:48.043Z,100034.53
2023-04-04T11:25:56.788Z,100029.33
2023-04-04T11:26:59.377Z,100033.44
2023-04-04T11:29:24.636Z,100037.58
2023-04-04T11:30:27.933Z,100043.02
2023-04-04T11:31:34.803Z,100039.30
2023-04-04T11:34:09.999Z,100038.34
2023-04-04T11:35:12.138Z,100046.49
2023-04-04T11:36:37.171Z,100040.12
2023-04-04T11:37:54.932Z,100033.98
2023-04-04T11:38:57.946Z,100050.67
2023-04-04T11:40:03.712Z,100039.11
2023-04-04T11:41:05.839Z,100045.24
2023-04-04T11:42:14.563Z,100035.60
2023-04-04T11:43:17.629Z,100040.78
2023-04-04T11:44:24.535Z,100038.86
2023-04-04T11:45:26.895Z,100042.50
2023-04-04T11:46:29.226Z,100040.70
2023-04-04T11:47:34.774Z,100037.28
2023-04-04T11:48:38.996Z,100041.64
2023-04-04T11:49:43.865Z,100040.91
2023-04-04T11:50:47.673Z,100028.50
2023-04-04T11:51:49.847Z,100036.45
2023-04-04T11:52:54.523Z,100036.45
2023-04-04T11:53:56.728Z,100030.17
2023-04-04T11:54:58.808Z,100031.97
2023-04-04T11:56:01.453Z,100040.70
2023-04-04T11:57:06.915Z,100038.04
2023-04-04T11:58:13.012Z,100032.73
2023-04-04T11:59:21.456Z,100043.23
2023-04-04T12:00:33.417Z,100038.77
2023-04-04T12:01:35.532Z,100038.64
2023-04-04T12:02:38.894Z,100034.19
2023-04-04T12:03:41.224Z,100034.09
2023-04-04T12:04:47.173Z,100032.39
2023-04-04T12:05:49.997Z,100026.14
2023-04-04T12:06:54.267Z,100028.88
2023-04-04T12:07:58.042Z,100021.87
2023-04-04T12:09:03.272Z,100027.17
2023-04-04T12:10:06.946Z,100028.16
2023-04-04T12:11:09.086Z,100025.50
2023-04-04T12:12:15.482Z,100032.48
2023-04-04T12:13:18.307Z,100021.87
2023-04-04T12:14:24.004Z,100032.39
2023-04-04T12:15:30.101Z,100038.43
2023-04-04T12:16:32.988Z,100034.92
2023-04-04T12:17:40.234Z,100047.13
2023-04-04T12:18:45.010Z,100030.47
2023-04-04T12:19:48.349Z,100033.12
2023-04-04T12:20:52.251Z,100042.16
2023-04-04T12:21:56.060Z,100043.23
2023-04-04T12:22:58.593Z,100038.04
2023-04-04T12:24:00.890Z,100041.64
2023-04-04T12:25:04.331Z,100039.94
2023-04-04T12:26:07.949Z,100036.52
2023-04-04T12:27:11.367Z,100034.81
2023-04-04T12:28:14.151Z,100032.16
2023-04-04T12:29:17.528Z,100033.01
2023-04-04T12:30:20.684Z,100035.66
2023-04-04T12:32:35.522Z,100031.10
2023-04-04T12:33:39.770Z,100028.55
2023-04-04T12:34:45.553Z,100028.38
2023-04-04T12:37:03.293Z,100027.59
2023-04-04T12:38:06.551Z,100026.12
2023-04-04T12:39:09.885Z,100020.72
2023-04-04T12:40:12.837Z,100029.50
2023-04-04T12:41:17.853Z,100025.84
2023-04-04T12:42:24.500Z,100024.01
2023-04-04T12:43:28.779Z,100022.20
2023-04-04T12:44:36.765Z,100014.16
2023-04-04T12:45:39.912Z,100014.16
2023-04-04T12:46:44.486Z,100013.30
2023-04-04T12:47:53.324Z,100009.80